Time;durP1;ratioP1;P1;durP2;ratioP2;P2;SDS_P1;SDS_P2;PMS_P1;PMS_P2;Temp;Humidity;BMP_temperature;BMP_pressure;BME280_temperature;BME280_humidity;BME280_pressure;Samples;Min_cycle;Max_cycle;Signal;HPM_P1;HPM_P2
2022/03/12 00:01:27;;;;;;;;;;;25.30;99.90;;;;;;6157508;23;19901;-76
2022/03/12 00:03:54;;;;;;;;;;;25.20;99.90;;;;;;6157159;23;20373;-75
2022/03/12 00:06:22;;;;;;;;;;;25.20;99.90;;;;;;6130883;23;19912;-76
2022/03/12 00:08:51;;;;;;;;;;;25.40;99.90;;;;;;6130637;23;20371;-75
2022/03/12 00:11:19;;;;;;;;;;;25.60;99.90;;;;;;6156888;23;20414;-76
2022/03/12 00:13:46;;;;;;;;;;;25.90;99.90;;;;;;6130801;23;19952;-77
2022/03/12 00:16:16;;;;;;;;;;;25.90;99.90;;;;;;6157254;23;20340;-76
2022/03/12 00:18:44;;;;;;;;;;;26.00;99.90;;;;;;6131188;23;19904;-76
2022/03/12 00:21:13;;;;;;;;;;;25.90;99.90;;;;;;6130806;23;19928;-76
2022/03/12 00:23:43;;;;;;;;;;;25.80;99.90;;;;;;6130849;23;19905;-75
2022/03/12 00:26:10;;;;;;;;;;;26.10;99.90;;;;;;6130958;23;19900;-76
2022/03/12 00:28:36;;;;;;;;;;;26.20;99.90;;;;;;6130826;23;19901;-75
2022/03/12 00:31:03;;;;;;;;;;;26.10;99.90;;;;;;6130929;23;19908;-76
2022/03/12 00:33:30;;;;;;;;;;;25.60;99.90;;;;;;6130157;23;19959;-76
2022/03/12 00:35:58;;;;;;;;;;;25.30;99.90;;;;;;6156768;23;19904;-76
2022/03/12 00:38:25;;;;;;;;;;;25.40;99.90;;;;;;6156675;23;19955;-76
2022/03/12 00:40:52;;;;;;;;;;;25.90;99.90;;;;;;6130464;23;19928;-76
2022/03/12 00:43:19;;;;;;;;;;;26.30;99.90;;;;;;6156634;23;19901;-76
2022/03/12 00:45:46;;;;;;;;;;;26.00;99.90;;;;;;6156609;23;19908;-76
2022/03/12 00:48:13;;;;;;;;;;;25.60;99.90;;;;;;6156495;23;20017;-76
2022/03/12 00:50:40;;;;;;;;;;;25.30;99.90;;;;;;6130335;23;19900;-76
2022/03/12 00:53:06;;;;;;;;;;;25.00;99.90;;;;;;6156661;23;20306;-77
2022/03/12 00:55:34;;;;;;;;;;;25.00;99.90;;;;;;6156789;23;19986;-77
2022/03/12 00:58:00;;;;;;;;;;;24.80;99.90;;;;;;6130348;23;19912;-77
2022/03/12 01:00:27;;;;;;;;;;;24.80;99.90;;;;;;6130622;23;19900;-77
2022/03/12 01:02:54;;;;;;;;;;;24.70;99.90;;;;;;6130707;23;20226;-77
2022/03/12 01:05:35;;;;;;;;;;;24.70;99.90;;;;;;6130239;23;19920;-76
2022/03/12 01:08:01;;;;;;;;;;;24.40;99.90;;;;;;6130558;23;19901;-76
2022/03/12 01:10:28;;;;;;;;;;;24.40;99.90;;;;;;6156666;23;19943;-77
2022/03/12 01:12:54;;;;;;;;;;;24.40;99.90;;;;;;6130300;23;19900;-77
2022/03/12 01:15:21;;;;;;;;;;;24.30;99.90;;;;;;6130280;23;19982;-77
2022/03/12 01:17:48;;;;;;;;;;;24.30;99.90;;;;;;6130096;23;19963;-77
2022/03/12 01:20:14;;;;;;;;;;;24.30;99.90;;;;;;6155896;23;20233;-77
2022/03/12 01:22:41;;;;;;;;;;;24.20;99.90;;;;;;6156155;23;19907;-77
2022/03/12 01:25:08;;;;;;;;;;;24.10;99.90;;;;;;6156099;23;19912;-77
2022/03/12 01:27:35;;;;;;;;;;;24.00;99.90;;;;;;6129760;23;19939;-77
2022/03/12 01:30:02;;;;;;;;;;;23.90;99.90;;;;;;6156036;23;19905;-77
2022/03/12 01:32:28;;;;;;;;;;;23.80;99.90;;;;;;6129494;23;19908;-77
2022/03/12 01:34:55;;;;;;;;;;;23.70;99.90;;;;;;6129630;23;19975;-77
2022/03/12 01:37:22;;;;;;;;;;;23.60;99.90;;;;;;6156208;23;19919;-78
2022/03/12 01:39:49;;;;;;;;;;;23.50;99.90;;;;;;6156336;23;19916;-78
2022/03/12 01:42:16;;;;;;;;;;;23.40;99.90;;;;;;6156326;23;19975;-78
2022/03/12 01:44:44;;;;;;;;;;;23.50;99.90;;;;;;6129971;23;19954;-77
2022/03/12 01:47:11;;;;;;;;;;;23.70;99.90;;;;;;6156264;23;19908;-78
2022/03/12 01:49:38;;;;;;;;;;;23.80;99.90;;;;;;6156142;23;20326;-78
2022/03/12 01:52:07;;;;;;;;;;;24.00;99.90;;;;;;6156157;23;19900;-78
2022/03/12 01:54:35;;;;;;;;;;;24.20;99.90;;;;;;6156248;23;20241;-77
2022/03/12 01:57:03;;;;;;;;;;;24.40;99.90;;;;;;6156116;23;20438;-78
2022/03/12 01:59:29;;;;;;;;;;;25.30;99.90;;;;;;6129996;23;19987;-77
2022/03/12 02:01:57;;;;;;;;;;;25.80;99.90;;;;;;6129801;23;20230;-74
2022/03/12 02:04:25;;;;;;;;;;;26.20;99.90;;;;;;6155801;23;19963;-75
2022/03/12 02:06:52;;;;;;;;;;;26.60;99.90;;;;;;6155848;23;19911;-74
2022/03/12 02:09:20;;;;;;;;;;;26.90;99.90;;;;;;6156059;23;19995;-75
2022/03/12 02:11:51;;;;;;;;;;;26.80;99.90;;;;;;6129625;23;19907;-76
2022/03/12 02:14:19;;;;;;;;;;;26.60;99.90;;;;;;6156372;23;19905;-76
2022/03/12 02:16:48;;;;;;;;;;;27.00;99.90;;;;;;6155766;23;19904;-74
2022/03/12 02:19:14;;;;;;;;;;;27.20;99.90;;;;;;6129470;23;19901;-74
2022/03/12 02:21:49;;;;;;;;;;;27.00;99.90;;;;;;6155763;23;19901;-75
2022/03/12 02:24:17;;;;;;;;;;;27.30;99.90;;;;;;6155777;23;19907;-75
2022/03/12 02:26:44;;;;;;;;;;;27.00;99.90;;;;;;6155733;23;19901;-75
2022/03/12 02:29:12;;;;;;;;;;;27.20;99.90;;;;;;6129709;23;20270;-75
2022/03/12 02:31:45;;;;;;;;;;;27.40;99.90;;;;;;6155507;23;19979;-75
2022/03/12 02:34:12;;;;;;;;;;;27.40;99.90;;;;;;6129941;23;19900;-75
2022/03/12 02:36:40;;;;;;;;;;;27.60;99.90;;;;;;6155427;23;19915;-75
2022/03/12 02:39:07;;;;;;;;;;;26.80;99.90;;;;;;6155834;23;20331;-75
2022/03/12 02:41:34;;;;;;;;;;;25.90;99.90;;;;;;6155679;23;19901;-75
2022/03/12 02:44:01;;;;;;;;;;;26.00;99.90;;;;;;6155673;23;19901;-75
2022/03/12 02:46:31;;;;;;;;;;;26.40;99.90;;;;;;6129618;23;20430;-76
2022/03/12 02:48:58;;;;;;;;;;;26.20;99.90;;;;;;6155966;23;19954;-76
2022/03/12 02:51:26;;;;;;;;;;;25.80;99.90;;;;;;6155641;23;19907;-77
2022/03/12 02:53:56;;;;;;;;;;;26.20;99.90;;;;;;6155936;23;20255;-76
2022/03/12 02:56:23;;;;;;;;;;;26.50;99.90;;;;;;6129235;23;19905;-77
2022/03/12 02:58:51;;;;;;;;;;;26.30;99.90;;;;;;6155815;23;19912;-76
2022/03/12 03:01:18;;;;;;;;;;;26.60;99.90;;;;;;6129542;23;20338;-76
2022/03/12 03:03:45;;;;;;;;;;;26.80;99.90;;;;;;6155837;23;20223;-76
2022/03/12 03:06:15;;;;;;;;;;;26.90;99.90;;;;;;6155572;23;19967;-76
2022/03/12 03:08:43;;;;;;;;;;;26.90;99.90;;;;;;6129667;23;19939;-76
2022/03/12 03:11:14;;;;;;;;;;;26.80;99.90;;;;;;6156029;23;20326;-76
2022/03/12 03:13:45;;;;;;;;;;;26.60;99.90;;;;;;6155622;23;20326;-76
2022/03/12 03:16:18;;;;;;;;;;;26.60;99.90;;;;;;6155688;23;19951;-76
2022/03/12 03:18:50;;;;;;;;;;;26.80;99.90;;;;;;6155608;23;20315;-76
2022/03/12 03:21:19;;;;;;;;;;;26.90;99.90;;;;;;6155779;23;19901;-76
2022/03/12 03:23:45;;;;;;;;;;;27.10;99.90;;;;;;6129470;23;19931;-76
2022/03/12 03:26:14;;;;;;;;;;;27.00;99.90;;;;;;6155669;23;19907;-76
2022/03/12 03:28:41;;;;;;;;;;;26.40;99.90;;;;;;6155604;23;19928;-76
2022/03/12 03:31:08;;;;;;;;;;;26.00;99.90;;;;;;6129590;23;19905;-76
2022/03/12 03:33:35;;;;;;;;;;;26.40;99.90;;;;;;6155445;23;19900;-75
2022/03/12 03:36:01;;;;;;;;;;;26.80;99.90;;;;;;6155512;23;19900;-75
2022/03/12 03:38:28;;;;;;;;;;;26.80;99.90;;;;;;6129285;23;20326;-75
2022/03/12 03:40:55;;;;;;;;;;;26.80;99.90;;;;;;6155492;23;19907;-75
2022/03/12 03:43:22;;;;;;;;;;;26.20;99.90;;;;;;6155353;23;19916;-77
2022/03/12 03:45:51;;;;;;;;;;;26.20;99.90;;;;;;6155504;23;19955;-76
2022/03/12 03:48:19;;;;;;;;;;;26.60;99.90;;;;;;6155229;23;20337;-76
2022/03/12 03:50:46;;;;;;;;;;;26.80;99.90;;;;;;6129204;23;20229;-75
2022/03/12 03:53:14;;;;;;;;;;;27.20;99.90;;;;;;6129216;23;19955;-76
2022/03/12 03:55:42;;;;;;;;;;;27.00;99.90;;;;;;6155510;23;19983;-79
2022/03/12 03:58:09;;;;;;;;;;;26.70;99.90;;;;;;6155194;23;20350;-76
2022/03/12 04:00:35;;;;;;;;;;;26.70;99.90;;;;;;6129825;23;19983;-76
2022/03/12 04:03:05;;;;;;;;;;;26.40;99.90;;;;;;6129165;23;19971;-76
2022/03/12 04:05:33;;;;;;;;;;;26.40;99.90;;;;;;6155254;23;20232;-75
2022/03/12 04:08:00;;;;;;;;;;;26.00;99.90;;;;;;6155553;23;20274;-76
2022/03/12 04:10:27;;;;;;;;;;;26.30;99.90;;;;;;6130660;23;19901;-76
2022/03/12 04:12:55;;;;;;;;;;;26.50;99.90;;;;;;6157210;23;20242;-75
2022/03/12 04:15:21;;;;;;;;;;;26.60;99.90;;;;;;6156915;23;20285;-75
2022/03/12 04:17:51;;;;;;;;;;;26.80;99.90;;;;;;6130750;23;19908;-74
2022/03/12 04:20:22;;;;;;;;;;;27.00;99.90;;;;;;6157119;23;19904;-75
2022/03/12 04:22:50;;;;;;;;;;;27.00;99.90;;;;;;6131061;23;19983;-75
2022/03/12 04:25:18;;;;;;;;;;;27.00;99.90;;;;;;6157081;23;19901;-76
2022/03/12 04:27:45;;;;;;;;;;;26.90;99.90;;;;;;6157074;23;19908;-75
2022/03/12 04:30:12;;;;;;;;;;;27.10;99.90;;;;;;6130910;23;20015;-74
2022/03/12 04:32:40;;;;;;;;;;;27.00;99.90;;;;;;6157100;23;19904;-74
2022/03/12 04:35:07;;;;;;;;;;;26.80;99.90;;;;;;6130865;23;19927;-76
2022/03/12 04:37:35;;;;;;;;;;;26.90;99.90;;;;;;6156981;23;19947;-76
2022/03/12 04:40:13;;;;;;;;;;;26.80;99.90;;;;;;6156940;23;19975;-74
2022/03/12 04:42:44;;;;;;;;;;;26.70;99.90;;;;;;6156913;23;19956;-73
2022/03/12 04:45:12;;;;;;;;;;;27.00;99.90;;;;;;6156966;23;19907;-74
2022/03/12 04:47:41;;;;;;;;;;;27.30;99.90;;;;;;6156896;23;19909;-74
2022/03/12 04:50:09;;;;;;;;;;;27.30;99.90;;;;;;6156848;23;19904;-74
2022/03/12 04:52:36;;;;;;;;;;;27.00;99.90;;;;;;6156901;23;19901;-74
2022/03/12 04:55:10;;;;;;;;;;;26.70;99.90;;;;;;6156774;23;19979;-74
2022/03/12 04:57:36;;;;;;;;;;;26.40;99.90;;;;;;6156665;23;20333;-74
2022/03/12 05:00:07;;;;;;;;;;;26.60;99.90;;;;;;6156720;23;19900;-74
2022/03/12 05:02:34;;;;;;;;;;;26.80;99.90;;;;;;6156762;23;19955;-74
2022/03/12 05:05:00;;;;;;;;;;;26.90;99.90;;;;;;6156523;23;19987;-74
2022/03/12 05:07:27;;;;;;;;;;;26.80;99.90;;;;;;6156810;23;19900;-75
2022/03/12 05:09:57;;;;;;;;;;;26.80;99.90;;;;;;6156482;23;20292;-73
2022/03/12 05:12:24;;;;;;;;;;;26.80;99.90;;;;;;6156648;23;20317;-73
2022/03/12 05:14:53;;;;;;;;;;;26.90;99.90;;;;;;6156553;23;20318;-73
2022/03/12 05:17:26;;;;;;;;;;;26.90;99.90;;;;;;6156582;23;20326;-73
2022/03/12 05:19:53;;;;;;;;;;;26.80;99.90;;;;;;6156547;23;19901;-73
2022/03/12 05:22:20;;;;;;;;;;;26.90;99.90;;;;;;6130384;23;19976;-73
2022/03/12 05:24:46;;;;;;;;;;;26.70;99.90;;;;;;6156533;23;19919;-73
2022/03/12 05:27:15;;;;;;;;;;;26.80;99.90;;;;;;6130177;23;20357;-74
2022/03/12 05:29:45;;;;;;;;;;;27.00;99.90;;;;;;6156235;23;19911;-73
2022/03/12 05:32:12;;;;;;;;;;;27.00;99.90;;;;;;6129894;23;20306;-74
2022/03/12 05:34:40;;;;;;;;;;;26.80;99.90;;;;;;6156465;23;19904;-74
2022/03/12 05:37:08;;;;;;;;;;;26.70;99.90;;;;;;6156055;23;19905;-74
2022/03/12 05:39:35;;;;;;;;;;;26.70;99.90;;;;;;6156354;23;19951;-74
2022/03/12 05:42:05;;;;;;;;;;;26.60;99.90;;;;;;6156160;23;19901;-74
2022/03/12 05:44:34;;;;;;;;;;;26.30;99.90;;;;;;6130436;23;19907;-73
2022/03/12 05:47:04;;;;;;;;;;;26.30;99.90;;;;;;6156324;23;20344;-73
2022/03/12 05:49:30;;;;;;;;;;;26.10;99.90;;;;;;6156453;23;19900;-74
2022/03/12 05:51:58;;;;;;;;;;;25.80;99.90;;;;;;6156268;23;19951;-74
2022/03/12 05:54:24;;;;;;;;;;;25.80;99.90;;;;;;6156354;23;19901;-74
2022/03/12 05:56:51;;;;;;;;;;;26.00;99.90;;;;;;6129973;23;19905;-73
2022/03/12 05:59:18;;;;;;;;;;;26.00;99.90;;;;;;6156280;23;20027;-73
2022/03/12 06:01:45;;;;;;;;;;;26.10;99.90;;;;;;6130060;23;19932;-73
2022/03/12 06:04:12;;;;;;;;;;;25.80;99.90;;;;;;6156242;23;19923;-73
2022/03/12 06:06:39;;;;;;;;;;;25.70;99.90;;;;;;6156001;23;20083;-73
2022/03/12 06:09:07;;;;;;;;;;;25.80;99.90;;;;;;6156226;23;19900;-73
2022/03/12 06:11:35;;;;;;;;;;;25.90;99.90;;;;;;6156053;23;19901;-74
2022/03/12 06:14:03;;;;;;;;;;;26.00;99.90;;;;;;6156018;23;19901;-74
2022/03/12 06:16:31;;;;;;;;;;;25.90;99.90;;;;;;6129616;23;19904;-74
2022/03/12 06:18:58;;;;;;;;;;;25.80;99.90;;;;;;6155899;23;19905;-74
2022/03/12 06:21:25;;;;;;;;;;;25.60;99.90;;;;;;6155847;23;19900;-73
2022/03/12 06:23:54;;;;;;;;;;;25.70;99.90;;;;;;6155900;23;19900;-74
2022/03/12 06:26:24;;;;;;;;;;;25.60;99.90;;;;;;6155860;23;19908;-73
2022/03/12 06:28:51;;;;;;;;;;;25.50;99.90;;;;;;6155868;23;20303;-74
2022/03/12 06:31:19;;;;;;;;;;;25.40;99.90;;;;;;6155625;23;19905;-74
2022/03/12 06:33:45;;;;;;;;;;;25.00;99.90;;;;;;6156006;23;19906;-74
2022/03/12 06:36:13;;;;;;;;;;;25.20;99.90;;;;;;6155828;23;19901;-74
2022/03/12 06:38:39;;;;;;;;;;;25.00;99.90;;;;;;6129604;23;19900;-74
2022/03/12 06:41:06;;;;;;;;;;;25.00;99.90;;;;;;6155844;23;19900;-75
2022/03/12 06:43:33;;;;;;;;;;;25.00;99.90;;;;;;6155812;23;20046;-75
2022/03/12 06:46:01;;;;;;;;;;;25.10;99.90;;;;;;6155857;23;19901;-75
2022/03/12 06:48:29;;;;;;;;;;;25.00;99.90;;;;;;6155730;23;19905;-75
2022/03/12 06:50:56;;;;;;;;;;;25.10;99.90;;;;;;6155881;23;19932;-74
2022/03/12 06:53:23;;;;;;;;;;;24.90;99.90;;;;;;6129528;23;19987;-75
2022/03/12 06:55:49;;;;;;;;;;;24.90;99.90;;;;;;6129623;23;20317;-74
2022/03/12 06:58:18;;;;;;;;;;;24.80;99.90;;;;;;6129462;23;20245;-73
2022/03/12 07:00:44;;;;;;;;;;;25.00;99.90;;;;;;6129785;23;19927;-73
2022/03/12 07:03:11;;;;;;;;;;;25.00;99.90;;;;;;6155624;23;19900;-75
2022/03/12 07:05:38;;;;;;;;;;;25.00;99.90;;;;;;6155531;23;19983;-74
2022/03/12 07:08:05;;;;;;;;;;;25.10;99.90;;;;;;6155590;23;19901;-74
2022/03/12 07:10:31;;;;;;;;;;;25.00;99.90;;;;;;6129422;23;19976;-75
2022/03/12 07:12:58;;;;;;;;;;;25.10;99.90;;;;;;6155620;23;19908;-74
2022/03/12 07:15:25;;;;;;;;;;;25.30;99.90;;;;;;6155724;23;20319;-75
2022/03/12 07:17:52;;;;;;;;;;;25.50;99.90;;;;;;6155700;23;20295;-75
2022/03/12 07:20:18;;;;;;;;;;;25.50;99.90;;;;;;6129408;23;19908;-75
2022/03/12 07:22:45;;;;;;;;;;;25.60;99.90;;;;;;6155820;23;19901;-73
2022/03/12 07:25:13;;;;;;;;;;;25.30;99.90;;;;;;6155531;23;20314;-73
2022/03/12 07:27:40;;;;;;;;;;;24.90;99.90;;;;;;6129558;23;19955;-74
2022/03/12 07:30:08;;;;;;;;;;;24.50;99.90;;;;;;6155629;23;19949;-74
2022/03/12 07:32:35;;;;;;;;;;;24.00;99.90;;;;;;6129540;23;19900;-74
2022/03/12 07:35:02;;;;;;;;;;;23.60;99.90;;;;;;6129409;23;20405;-73
2022/03/12 07:37:29;;;;;;;;;;;23.40;99.90;;;;;;6155622;23;20333;-74
2022/03/12 07:39:56;;;;;;;;;;;23.20;99.90;;;;;;6129214;23;19901;-74
2022/03/12 07:42:22;;;;;;;;;;;23.00;99.90;;;;;;6155706;23;19928;-74
2022/03/12 07:44:49;;;;;;;;;;;22.90;99.90;;;;;;6131253;23;19901;-75
2022/03/12 07:47:16;;;;;;;;;;;22.70;99.90;;;;;;6157494;23;19905;-74
2022/03/12 07:49:42;;;;;;;;;;;22.50;99.90;;;;;;6131310;23;19967;-74
2022/03/12 07:52:10;;;;;;;;;;;22.40;99.90;;;;;;6131317;23;20310;-74
2022/03/12 07:54:37;;;;;;;;;;;22.30;99.90;;;;;;6157429;23;19904;-75
2022/03/12 07:57:04;;;;;;;;;;;22.20;99.90;;;;;;6157352;23;19905;-74
2022/03/12 07:59:31;;;;;;;;;;;22.10;99.90;;;;;;6131159;23;20314;-76
2022/03/12 08:01:58;;;;;;;;;;;21.90;99.90;;;;;;6131268;23;19905;-74
2022/03/12 08:04:26;;;;;;;;;;;21.80;99.90;;;;;;6157104;23;19901;-74
2022/03/12 08:06:53;;;;;;;;;;;21.80;99.90;;;;;;6131177;23;19943;-74
2022/03/12 08:09:19;;;;;;;;;;;21.70;99.90;;;;;;6130952;23;20270;-75
2022/03/12 08:11:47;;;;;;;;;;;21.60;99.90;;;;;;6131025;23;19912;-74
2022/03/12 08:14:17;;;;;;;;;;;21.60;99.90;;;;;;6131128;23;20234;-74
2022/03/12 08:16:44;;;;;;;;;;;21.50;99.90;;;;;;6157217;23;19958;-74
2022/03/12 08:19:11;;;;;;;;;;;21.50;99.90;;;;;;6157264;23;19902;-74
2022/03/12 08:21:39;;;;;;;;;;;21.40;99.90;;;;;;6157134;23;20010;-74
2022/03/12 08:24:06;;;;;;;;;;;21.30;99.90;;;;;;6157205;23;19908;-74
2022/03/12 08:26:34;;;;;;;;;;;21.30;99.90;;;;;;6156995;23;19950;-74
2022/03/12 08:29:01;;;;;;;;;;;21.20;99.90;;;;;;6157070;23;19900;-74
2022/03/12 08:31:28;;;;;;;;;;;21.20;99.90;;;;;;6130776;23;19983;-74
2022/03/12 08:33:55;;;;;;;;;;;21.20;99.90;;;;;;6130998;23;19904;-74
2022/03/12 08:36:21;;;;;;;;;;;21.10;99.90;;;;;;6130420;23;19900;-74
2022/03/12 08:38:48;;;;;;;;;;;21.10;99.90;;;;;;6156965;23;19904;-74
2022/03/12 08:41:15;;;;;;;;;;;21.00;99.90;;;;;;6156887;23;19979;-76
2022/03/12 08:43:42;;;;;;;;;;;21.00;99.90;;;;;;6156770;23;19901;-75
2022/03/12 08:46:09;;;;;;;;;;;21.00;99.90;;;;;;6130706;23;19901;-74
2022/03/12 08:48:36;;;;;;;;;;;20.90;99.90;;;;;;6130683;23;20264;-75
2022/03/12 08:51:03;;;;;;;;;;;20.90;99.90;;;;;;6130695;23;19900;-75
2022/03/12 08:53:30;;;;;;;;;;;20.90;99.90;;;;;;6130811;23;19900;-74
2022/03/12 08:56:00;;;;;;;;;;;20.80;99.90;;;;;;6156571;23;19938;-74
2022/03/12 08:58:27;;;;;;;;;;;20.80;99.90;;;;;;6156747;23;19927;-74
2022/03/12 09:00:54;;;;;;;;;;;20.70;99.90;;;;;;6130570;23;19905;-74
2022/03/12 09:03:21;;;;;;;;;;;20.70;99.90;;;;;;6156684;23;19901;-75
2022/03/12 09:05:51;;;;;;;;;;;20.70;99.90;;;;;;6156558;23;20254;-75
2022/03/12 09:08:18;;;;;;;;;;;20.70;99.90;;;;;;6156773;23;19983;-75
2022/03/12 09:10:45;;;;;;;;;;;20.70;99.90;;;;;;6156771;23;19904;-75
2022/03/12 09:13:16;;;;;;;;;;;20.60;99.90;;;;;;6130623;23;19901;-75
2022/03/12 09:15:42;;;;;;;;;;;20.60;99.90;;;;;;6157004;23;20020;-74
2022/03/12 09:18:10;;;;;;;;;;;20.60;99.90;;;;;;6156564;23;19927;-75
2022/03/12 09:20:45;;;;;;;;;;;20.50;99.90;;;;;;6156745;23;20237;-74
2022/03/12 09:23:15;;;;;;;;;;;20.40;99.90;;;;;;6156597;23;20313;-74
2022/03/12 09:25:42;;;;;;;;;;;20.40;99.90;;;;;;6130485;23;20225;-74
2022/03/12 09:28:09;;;;;;;;;;;20.40;99.90;;;;;;6156669;23;19908;-74
2022/03/12 09:30:36;;;;;;;;;;;20.30;99.90;;;;;;6156592;23;19900;-74
2022/03/12 09:33:03;;;;;;;;;;;20.20;99.90;;;;;;6156536;23;19907;-74
2022/03/12 09:35:31;;;;;;;;;;;20.20;99.90;;;;;;6156511;23;19908;-74
2022/03/12 09:37:59;;;;;;;;;;;20.20;99.90;;;;;;6130051;23;19987;-74
2022/03/12 09:40:26;;;;;;;;;;;20.10;99.90;;;;;;6156784;23;19900;-75
2022/03/12 09:42:53;;;;;;;;;;;20.10;99.90;;;;;;6130251;23;19908;-75
2022/03/12 09:45:20;;;;;;;;;;;20.10;99.90;;;;;;6130073;23;19900;-75
2022/03/12 09:47:47;;;;;;;;;;;20.10;99.90;;;;;;6130274;23;20295;-74
2022/03/12 09:50:14;;;;;;;;;;;20.20;99.90;;;;;;6156367;23;19900;-75
2022/03/12 09:52:41;;;;;;;;;;;20.10;99.90;;;;;;6156436;23;20318;-74
2022/03/12 09:55:08;;;;;;;;;;;20.20;99.90;;;;;;6130026;23;19994;-78
2022/03/12 09:57:34;;;;;;;;;;;20.20;99.90;;;;;;6156265;23;19911;-74
2022/03/12 10:00:04;;;;;;;;;;;20.20;99.90;;;;;;6129959;23;19983;-74
2022/03/12 10:02:31;;;;;;;;;;;20.30;99.90;;;;;;6130178;23;19924;-75
2022/03/12 10:04:57;;;;;;;;;;;20.30;99.90;;;;;;6155902;23;19935;-74
2022/03/12 10:07:24;;;;;;;;;;;20.20;99.90;;;;;;6129572;23;19972;-74
2022/03/12 10:09:51;;;;;;;;;;;20.20;99.90;;;;;;6130018;23;19905;-74
2022/03/12 10:12:19;;;;;;;;;;;20.20;99.90;;;;;;6130529;23;20255;-74
2022/03/12 10:14:49;;;;;;;;;;;20.10;99.90;;;;;;6130043;23;19900;-74
2022/03/12 10:17:18;;;;;;;;;;;20.10;99.90;;;;;;6156074;23;19959;-74
2022/03/12 10:19:46;;;;;;;;;;;20.10;99.90;;;;;;6156120;23;20206;-74
2022/03/12 10:22:14;;;;;;;;;;;20.00;99.90;;;;;;6156200;23;20237;-75
2022/03/12 10:24:41;;;;;;;;;;;20.00;99.90;;;;;;6156069;23;19908;-75
2022/03/12 10:27:08;;;;;;;;;;;19.90;99.90;;;;;;6156151;23;19904;-75
2022/03/12 10:29:35;;;;;;;;;;;19.90;99.90;;;;;;6129913;23;19907;-75
2022/03/12 10:32:41;;;;;;;;;;;19.90;99.90;;;;;;6129945;23;19983;-74
2022/03/12 10:35:08;;;;;;;;;;;19.90;99.90;;;;;;6058848;23;19904;-74
2022/03/12 10:37:35;;;;;;;;;;;19.90;99.90;;;;;;6155999;23;19904;-74
2022/03/12 10:40:06;;;;;;;;;;;19.80;99.90;;;;;;6129754;23;19974;-75
2022/03/12 10:42:33;;;;;;;;;;;19.80;99.90;;;;;;6129859;23;20238;-75
2022/03/12 10:45:06;;;;;;;;;;;19.70;99.90;;;;;;6129708;23;20277;-74
2022/03/12 10:47:41;;;;;;;;;;;19.70;99.90;;;;;;6155831;23;19956;-74
2022/03/12 10:50:11;;;;;;;;;;;19.60;99.90;;;;;;6155873;23;19904;-74
2022/03/12 10:52:44;;;;;;;;;;;19.60;99.90;;;;;;6155748;23;19901;-73
2022/03/12 10:55:17;;;;;;;;;;;19.60;99.90;;;;;;6129731;23;20320;-74
2022/03/12 10:57:57;;;;;;;;;;;19.60;99.90;;;;;;6155821;23;19904;-74
2022/03/12 11:00:25;;;;;;;;;;;19.60;99.90;;;;;;6155878;23;20055;-73
2022/03/12 11:02:59;;;;;;;;;;;19.60;99.90;;;;;;6155862;23;19907;-73
2022/03/12 11:05:27;;;;;;;;;;;19.60;99.90;;;;;;6155551;23;19913;-74
2022/03/12 11:08:06;;;;;;;;;;;19.60;99.90;;;;;;6155832;23;19900;-74
2022/03/12 11:10:33;;;;;;;;;;;19.60;99.90;;;;;;6156104;23;19901;-75
2022/03/12 11:13:01;;;;;;;;;;;19.60;99.90;;;;;;6155943;23;19908;-75
2022/03/12 11:15:28;;;;;;;;;;;19.50;99.90;;;;;;6129642;23;19983;-74
2022/03/12 11:17:55;;;;;;;;;;;19.50;99.90;;;;;;6130117;23;20378;-76
2022/03/12 11:20:25;;;;;;;;;;;19.50;99.90;;;;;;6157927;23;19928;-76
2022/03/12 11:23:12;;;;;;;;;;;19.50;99.90;;;;;;6157880;23;19951;-74
2022/03/12 11:25:59;;;;;;;;;;;19.40;99.90;;;;;;6133709;23;19920;-75
2022/03/12 11:28:28;;;;;;;;;;;19.40;99.90;;;;;;6131790;23;20281;-74
2022/03/12 11:30:56;;;;;;;;;;;19.50;99.90;;;;;;6157881;23;19907;-74
2022/03/12 11:33:25;;;;;;;;;;;19.40;99.90;;;;;;6131626;23;19976;-74
2022/03/12 11:35:58;;;;;;;;;;;19.40;99.90;;;;;;6158017;23;19950;-76
2022/03/12 11:38:25;;;;;;;;;;;19.40;99.90;;;;;;6157724;23;20238;-76
2022/03/12 11:41:01;;;;;;;;;;;19.40;99.90;;;;;;6157729;23;20380;-74
2022/03/12 11:43:31;;;;;;;;;;;19.40;99.90;;;;;;6131453;23;19932;-75
2022/03/12 11:46:03;;;;;;;;;;;19.40;99.90;;;;;;6157613;23;20006;-74
2022/03/12 11:48:38;;;;;;;;;;;19.40;99.90;;;;;;6157646;23;20332;-74
2022/03/12 11:51:17;;;;;;;;;;;19.30;99.90;;;;;;6157484;23;20168;-74
2022/03/12 11:53:45;;;;;;;;;;;19.20;99.90;;;;;;6157600;23;19939;-74
2022/03/12 11:56:12;;;;;;;;;;;19.20;99.90;;;;;;6131164;23;19905;-74
2022/03/12 11:58:39;;;;;;;;;;;19.10;99.90;;;;;;6157415;23;19923;-74
2022/03/12 12:01:06;;;;;;;;;;;19.10;99.90;;;;;;6157480;23;19901;-74
2022/03/12 12:03:33;;;;;;;;;;;19.10;99.90;;;;;;6131022;23;19900;-74
2022/03/12 12:05:59;;;;;;;;;;;19.10;99.90;;;;;;6131018;23;19919;-74
2022/03/12 12:08:27;;;;;;;;;;;19.00;99.90;;;;;;6131084;23;19900;-75
2022/03/12 12:11:02;;;;;;;;;;;19.10;99.90;;;;;;6157355;23;20314;-75
2022/03/12 12:13:31;;;;;;;;;;;19.10;99.90;;;;;;6157301;23;19908;-74
2022/03/12 12:15:58;;;;;;;;;;;19.10;99.90;;;;;;6157328;23;20234;-75
2022/03/12 12:18:25;;;;;;;;;;;19.00;99.90;;;;;;6157224;23;19904;-74
2022/03/12 12:20:51;;;;;;;;;;;19.00;99.90;;;;;;6157193;23;19901;-74
2022/03/12 12:23:19;;;;;;;;;;;18.90;99.90;;;;;;6157263;23;19908;-74
2022/03/12 12:25:46;;;;;;;;;;;18.90;99.90;;;;;;6157280;23;19908;-74
2022/03/12 12:28:17;;;;;;;;;;;18.80;99.90;;;;;;6130838;23;19900;-75
2022/03/12 12:30:46;;;;;;;;;;;18.80;99.90;;;;;;6130159;23;19900;-75
2022/03/12 12:33:22;;;;;;;;;;;18.80;99.90;;;;;;6157072;23;19907;-75
2022/03/12 12:35:50;;;;;;;;;;;18.70;99.90;;;;;;6156990;23;20234;-75
2022/03/12 12:38:19;;;;;;;;;;;18.70;99.90;;;;;;6156946;23;19927;-75
2022/03/12 12:40:47;;;;;;;;;;;18.70;99.90;;;;;;6156942;23;19984;-75
2022/03/12 12:43:17;;;;;;;;;;;18.70;99.90;;;;;;6156967;23;20266;-75
2022/03/12 12:45:53;;;;;;;;;;;18.70;99.90;;;;;;6157091;23;20234;-75
2022/03/12 12:48:41;;;;;;;;;;;18.70;99.90;;;;;;6156988;23;19908;-74
2022/03/12 12:51:12;;;;;;;;;;;18.70;99.90;;;;;;6156983;23;19904;-75
2022/03/12 12:53:46;;;;;;;;;;;18.70;99.90;;;;;;6156925;23;19901;-75
2022/03/12 12:56:21;;;;;;;;;;;18.70;99.90;;;;;;6156894;23;19900;-75
2022/03/12 12:58:54;;;;;;;;;;;18.70;99.90;;;;;;6130672;23;19905;-75
2022/03/12 13:01:34;;;;;;;;;;;18.60;99.90;;;;;;6130700;23;19958;-74
2022/03/12 13:04:05;;;;;;;;;;;18.50;99.90;;;;;;6156883;23;20229;-74
2022/03/12 13:06:41;;;;;;;;;;;18.40;99.90;;;;;;6130511;23;20238;-75
2022/03/12 13:09:20;;;;;;;;;;;18.40;99.90;;;;;;6156809;23;19904;-75
2022/03/12 13:11:51;;;;;;;;;;;18.40;99.90;;;;;;6156812;23;20073;-75
2022/03/12 13:14:20;;;;;;;;;;;18.30;99.90;;;;;;6130576;23;20291;-74
2022/03/12 13:16:48;;;;;;;;;;;18.30;99.90;;;;;;6156689;23;19908;-75
2022/03/12 13:19:30;;;;;;;;;;;18.30;99.90;;;;;;6156904;23;19930;-75
2022/03/12 13:22:00;;;;;;;;;;;18.30;99.90;;;;;;6156741;23;20322;-74
2022/03/12 13:24:32;;;;;;;;;;;18.20;99.90;;;;;;6156783;23;19971;-75
2022/03/12 13:27:02;;;;;;;;;;;18.20;99.90;;;;;;6130547;23;19907;-75
2022/03/12 13:29:29;;;;;;;;;;;18.20;99.90;;;;;;6156654;23;19901;-75
2022/03/12 13:31:56;;;;;;;;;;;18.20;99.90;;;;;;6130416;23;19900;-75
2022/03/12 13:34:24;;;;;;;;;;;18.20;99.90;;;;;;6130280;23;19920;-75
2022/03/12 13:36:56;;;;;;;;;;;18.10;99.90;;;;;;6130399;23;19905;-75
2022/03/12 13:39:24;;;;;;;;;;;18.10;99.90;;;;;;6156644;23;19908;-75
2022/03/12 13:41:51;;;;;;;;;;;18.00;99.90;;;;;;6156502;23;19912;-75
2022/03/12 13:44:19;;;;;;;;;;;18.00;99.90;;;;;;6130392;23;19905;-75
2022/03/12 13:46:49;;;;;;;;;;;18.00;99.90;;;;;;6156512;23;20274;-75
2022/03/12 13:49:16;;;;;;;;;;;17.90;99.90;;;;;;6130307;23;19901;-75
2022/03/12 13:51:51;;;;;;;;;;;17.90;99.90;;;;;;6156544;23;19967;-75
2022/03/12 13:54:19;;;;;;;;;;;17.80;99.90;;;;;;6156457;23;19927;-75
2022/03/12 13:56:46;;;;;;;;;;;17.80;99.90;;;;;;6130187;23;19912;-75
2022/03/12 13:59:17;;;;;;;;;;;17.80;99.90;;;;;;6156474;23;19901;-74
2022/03/12 14:01:45;;;;;;;;;;;17.70;99.90;;;;;;6156595;23;19932;-75
2022/03/12 14:04:24;;;;;;;;;;;17.70;99.90;;;;;;6156355;23;19971;-75
2022/03/12 14:06:50;;;;;;;;;;;17.60;99.90;;;;;;6130166;23;19912;-75
2022/03/12 14:09:24;;;;;;;;;;;17.60;99.90;;;;;;6130490;23;19923;-75
2022/03/12 14:11:59;;;;;;;;;;;17.60;99.90;;;;;;6156402;23;19971;-75
2022/03/12 14:14:28;;;;;;;;;;;17.50;99.90;;;;;;6130189;23;19900;-75
2022/03/12 14:17:03;;;;;;;;;;;17.40;99.90;;;;;;6130086;23;19911;-75
2022/03/12 14:19:32;;;;;;;;;;;17.40;99.90;;;;;;6156305;23;20326;-75
2022/03/12 14:22:02;;;;;;;;;;;17.40;99.90;;;;;;6130117;23;20266;-75
2022/03/12 14:24:30;;;;;;;;;;;17.40;99.90;;;;;;6156173;23;19958;-75